Portada
METAR-TAF:

METAR-TAF

Aeroports :

Asaluyeh, Iran

latitud: 27-22-46N, longitud: 52-44-15E, altitud: 8 m

Observació

L'informe es va fer fa 21 minuts, a les 03:00 UTC
Vent 4 kt del Sud-Est
Temperatura 26°C
Humitat 79%
Pressió 1006 hPa
Visibilitat: 6000 m

METAR: OIBP 250300Z 14004KT 6000 NSC 26/22 Q1005 A2970

Hora: 06:51 (03:21 UTC)

Pronòstic

L'informe es va fer fa 1 hora i 16 minuts, a les 02:05 UTC
Pronòstic vàlid del 25 a les 03 UTC al 25 a les 12 UTC
Vent 8 kt del Sud/Sud-Est
Visibilitat: 7000 m
Temporalment
l' 25 a les 03 UTC al 25 a les 06 UTC
Visibilitat: 4000 m

TAF: OIBP 250205Z 2503/2512 15008KT 7000 NSC TEMPO 2503/2506 4000 BR/HZ

Observacions i pronòstics meteorològics de més de 4000 aeroports (METAR i TAF).

Les estacions disponibles són els punts grocs i vermells al mapa.

Posi el ratolí al punt desitjat per veure el nom de l'estació.

Feu clic per veure les observacions i els pronòstics meteorològics.

Per canviar el mapa: feu clic els botons verds amb una creu de color negre per apropar; al botó verd amb un guió per allunyar la imatge; o en les fletxes verdes per a mapes adjacents.


METAR-TAF: